Time;durP1;ratioP1;P1;durP2;ratioP2;P2;SDS_P1;SDS_P2;PMS_P1;PMS_P2;Temp;Humidity;BMP_temperature;BMP_pressure;BME280_temperature;BME280_humidity;BME280_pressure;Samples;Min_cycle;Max_cycle;Signal;HPM_P1;HPM_P2
2023/10/07 00:00:32;;;;;;;;;;;;;;;22.22;44.55;101707.88;7395095;19;1726;-41
2023/10/07 00:03:00;;;;;;;;;;;;;;;22.15;44.34;101694.09;7394110;19;1471;-41
2023/10/07 00:05:35;;;;;;;;;;;;;;;22.10;44.44;101690.94;7391977;19;1826;-41
2023/10/07 00:08:04;;;;;;;;;;;;;;;22.07;44.48;101710.06;7393320;19;1457;-41
2023/10/07 00:10:32;;;;;;;;;;;;;;;22.05;44.44;101693.19;7393986;19;1357;-41
2023/10/07 00:13:04;;;;;;;;;;;;;;;22.00;44.59;101701.69;7394832;19;1703;-41
2023/10/07 00:15:32;;;;;;;;;;;;;;;21.96;44.54;101673.28;7394334;19;1724;-41
2023/10/07 00:18:10;;;;;;;;;;;;;;;21.94;44.65;101680.63;7393102;19;1944;-41
2023/10/07 00:20:44;;;;;;;;;;;;;;;21.93;44.70;101678.09;7393885;19;1723;-41
2023/10/07 00:23:16;;;;;;;;;;;;;;;21.95;44.35;101681.53;7393795;19;2017;-41
2023/10/07 00:25:49;;;;;;;;;;;;;;;21.92;44.37;101676.38;7391642;19;1917;-41
2023/10/07 00:28:32;;;;;;;;;;;;;;;21.91;44.52;101678.22;7393393;19;1730;-41
2023/10/07 00:31:02;;;;;;;;;;;;;;;21.95;44.64;101684.22;7393423;19;1748;-41
2023/10/07 00:33:45;;;;;;;;;;;;;;;22.07;44.69;101688.53;7392504;19;1470;-41
2023/10/07 00:36:41;;;;;;;;;;;;;;;22.05;44.35;101691.34;7392855;19;1731;-41
2023/10/07 00:39:07;;;;;;;;;;;;;;;21.96;44.37;101683.22;7392019;19;1930;-41
2023/10/07 00:41:39;;;;;;;;;;;;;;;21.91;44.66;101694.38;7392647;19;1746;-41
2023/10/07 00:44:17;;;;;;;;;;;;;;;21.89;44.61;101695.53;7391831;19;1865;-41
2023/10/07 00:46:48;;;;;;;;;;;;;;;21.90;44.74;101692.66;7391518;19;1345;-41
2023/10/07 00:49:22;;;;;;;;;;;;;;;21.89;44.92;101688.28;7391516;19;1580;-41
2023/10/07 00:51:53;;;;;;;;;;;;;;;21.89;44.53;101692.81;7393065;19;1638;-41
2023/10/07 00:54:35;;;;;;;;;;;;;;;21.88;44.53;101677.63;7392918;19;1567;-41
2023/10/07 00:57:10;;;;;;;;;;;;;;;21.80;44.81;101684.53;7390644;19;1495;-41
2023/10/07 00:59:40;;;;;;;;;;;;;;;21.87;44.57;101684.03;7387621;19;1636;-41
2023/10/07 01:02:16;;;;;;;;;;;;;;;21.88;44.58;101689.25;7390717;19;1490;-41
2023/10/07 01:04:45;;;;;;;;;;;;;;;21.84;44.57;101691.38;7392873;19;1870;-41
2023/10/07 01:07:19;;;;;;;;;;;;;;;21.82;44.63;101687.09;7398420;19;1439;-41
2023/10/07 01:10:11;;;;;;;;;;;;;;;21.81;44.55;101697.03;7399820;19;1513;-41
2023/10/07 01:12:39;;;;;;;;;;;;;;;21.82;44.36;101690.63;7399042;19;1856;-41
2023/10/07 01:15:13;;;;;;;;;;;;;;;21.78;44.44;101681.09;7398552;19;1612;-41
2023/10/07 01:17:44;;;;;;;;;;;;;;;21.78;44.25;101697.25;7398239;19;1619;-41
2023/10/07 01:20:14;;;;;;;;;;;;;;;21.77;44.36;101700.97;7398338;19;1603;-41
2023/10/07 01:23:02;;;;;;;;;;;;;;;21.75;44.55;101688.63;7399977;19;1287;-41
2023/10/07 01:25:32;;;;;;;;;;;;;;;21.72;44.30;101687.03;7397936;19;1865;-41
2023/10/07 01:28:02;;;;;;;;;;;;;;;21.70;44.51;101686.31;7398697;19;1671;-41
2023/10/07 01:30:34;;;;;;;;;;;;;;;21.68;44.45;101690.97;7398426;19;1517;-41
2023/10/07 01:33:16;;;;;;;;;;;;;;;21.65;44.52;101693.94;7398380;19;1530;-41
2023/10/07 01:36:18;;;;;;;;;;;;;;;21.65;44.43;101704.69;7398382;19;1473;-41
2023/10/07 01:38:40;;;;;;;;;;;;;;;21.62;44.81;101686.09;7396975;19;1560;-41
2023/10/07 01:41:14;;;;;;;;;;;;;;;21.62;44.40;101692.34;7398508;19;1487;-41
2023/10/07 01:43:42;;;;;;;;;;;;;;;21.61;44.43;101692.50;7398391;19;1802;-41
2023/10/07 01:46:19;;;;;;;;;;;;;;;21.56;44.34;101670.47;7395763;19;1842;-41
2023/10/07 01:48:55;;;;;;;;;;;;;;;21.57;44.30;101720.66;7398154;19;1731;-41
2023/10/07 01:51:23;;;;;;;;;;;;;;;21.55;44.52;101687.63;7398292;19;1770;-41
2023/10/07 01:53:56;;;;;;;;;;;;;;;21.58;44.31;101690.03;7398152;19;1739;-41
2023/10/07 01:56:26;;;;;;;;;;;;;;;21.52;44.52;101690.56;7397788;19;1642;-41
2023/10/07 01:58:57;;;;;;;;;;;;;;;21.52;44.08;101695.94;7382531;19;1767;-41
2023/10/07 02:01:28;;;;;;;;;;;;;;;21.54;44.26;101683.22;7398045;19;1599;-41
2023/10/07 02:03:57;;;;;;;;;;;;;;;21.57;44.13;101688.34;7398402;19;1467;-41
2023/10/07 02:06:26;;;;;;;;;;;;;;;21.56;44.00;101690.16;7394758;19;1845;-41
2023/10/07 02:08:57;;;;;;;;;;;;;;;21.53;43.88;101686.91;7397687;19;1715;-41
2023/10/07 02:11:30;;;;;;;;;;;;;;;21.50;43.96;101687.16;7398756;19;1472;-41
2023/10/07 02:13:59;;;;;;;;;;;;;;;21.48;44.03;101689.13;7397149;19;1865;-41
2023/10/07 02:16:28;;;;;;;;;;;;;;;21.43;43.98;101687.66;7391551;19;1741;-41
2023/10/07 02:18:57;;;;;;;;;;;;;;;21.43;43.78;101687.66;7397242;19;1838;-41
2023/10/07 02:21:26;;;;;;;;;;;;;;;21.41;43.95;101694.97;7396398;19;1820;-41
2023/10/07 02:23:57;;;;;;;;;;;;;;;21.42;44.11;101685.91;7398093;19;1759;-41
2023/10/07 02:26:27;;;;;;;;;;;;;;;21.47;43.88;101684.72;7394995;19;1832;-41
2023/10/07 02:29:04;;;;;;;;;;;;;;;21.46;43.75;101681.16;7397393;19;1826;-41
2023/10/07 02:31:41;;;;;;;;;;;;;;;21.44;44.08;101672.38;7397222;19;1758;-41
2023/10/07 02:34:21;;;;;;;;;;;;;;;21.36;43.88;101683.75;7397103;19;1739;-41
2023/10/07 02:36:52;;;;;;;;;;;;;;;21.39;43.76;101690.72;7396246;19;1731;-41
2023/10/07 02:39:24;;;;;;;;;;;;;;;21.40;44.12;101681.66;7396522;19;1735;-41
2023/10/07 02:41:53;;;;;;;;;;;;;;;21.35;43.85;101673.13;7396400;19;1619;-41
2023/10/07 02:44:27;;;;;;;;;;;;;;;21.33;43.66;101681.31;7396120;19;1802;-41
2023/10/07 02:46:56;;;;;;;;;;;;;;;21.35;43.83;101689.28;7395978;19;1406;-41
2023/10/07 02:49:25;;;;;;;;;;;;;;;21.35;43.79;101694.66;7396243;19;1486;-41
2023/10/07 02:51:55;;;;;;;;;;;;;;;21.32;43.74;101684.97;7395343;19;1803;-41
2023/10/07 02:54:32;;;;;;;;;;;;;;;21.30;43.54;101696.88;7396192;19;1679;-41
2023/10/07 02:57:03;;;;;;;;;;;;;;;21.28;43.51;101688.91;7394751;19;1795;-41
2023/10/07 02:59:34;;;;;;;;;;;;;;;21.30;43.48;101688.78;7380583;19;1442;-41
2023/10/07 03:02:21;;;;;;;;;;;;;;;21.28;43.61;101688.91;7394961;19;1443;-41
2023/10/07 03:04:59;;;;;;;;;;;;;;;21.25;43.71;101692.72;7396193;19;1865;-41
2023/10/07 03:07:27;;;;;;;;;;;;;;;21.24;43.40;101674.00;7394599;19;1814;-41
2023/10/07 03:10:04;;;;;;;;;;;;;;;21.30;43.57;101678.88;7394955;19;1770;-41
2023/10/07 03:12:36;;;;;;;;;;;;;;;21.37;43.61;101671.16;7395798;19;1468;-41
2023/10/07 03:15:20;;;;;;;;;;;;;;;21.33;43.31;101646.34;7394289;19;1486;-41
2023/10/07 03:17:49;;;;;;;;;;;;;;;21.30;43.50;101670.81;7394982;19;1824;-41
2023/10/07 03:20:28;;;;;;;;;;;;;;;21.30;43.24;101657.34;7396880;19;927;-41
2023/10/07 03:23:19;;;;;;;;;;;;;;;21.26;43.27;101653.22;7395517;19;1841;-41
2023/10/07 03:26:05;;;;;;;;;;;;;;;21.27;43.46;101673.78;7393862;19;1861;-42
2023/10/07 03:28:46;;;;;;;;;;;;;;;21.36;44.78;101643.38;7390714;19;1497;-41
2023/10/07 03:31:18;;;;;;;;;;;;;;;21.77;44.05;101655.19;7386407;19;1466;-41
2023/10/07 03:33:49;;;;;;;;;;;;;;;22.08;44.57;101668.66;7394298;19;1501;-42
2023/10/07 03:39:16;;;;;;;;;;;;;;;22.23;44.53;101650.31;7392056;19;1657;-42
2023/10/07 03:41:52;;;;;;;;;;;;;;;22.22;44.74;101656.69;7394768;19;1808;-41
2023/10/07 03:44:21;;;;;;;;;;;;;;;22.27;44.80;101659.88;7388626;19;1537;-44
2023/10/07 03:46:49;;;;;;;;;;;;;;;22.26;44.93;101651.91;7390106;19;1867;-58
2023/10/07 03:49:21;;;;;;;;;;;;;;;22.27;44.61;101650.94;7391813;19;1612;-55
2023/10/07 03:51:58;;;;;;;;;;;;;;;22.22;44.92;101652.19;7393864;19;1262;-55
2023/10/07 03:54:29;;;;;;;;;;;;;;;22.35;44.95;101656.50;7391131;19;1398;-55
2023/10/07 03:57:00;;;;;;;;;;;;;;;22.48;44.58;101662.50;7390201;19;1352;-55
2023/10/07 03:59:31;;;;;;;;;;;;;;;22.51;44.66;101650.59;7378639;19;1523;-54
2023/10/07 04:02:00;;;;;;;;;;;;;;;22.52;44.63;101658.56;7394208;19;1463;-56
2023/10/07 04:04:29;;;;;;;;;;;;;;;22.57;44.58;101661.69;7398677;19;1265;-56
2023/10/07 04:07:00;;;;;;;;;;;;;;;22.46;45.14;101656.38;7394365;19;1861;-56
2023/10/07 04:09:33;;;;;;;;;;;;;;;22.39;45.61;101647.16;7396525;19;1576;-56
2023/10/07 04:12:06;;;;;;;;;;;;;;;22.34;45.96;101654.78;7395504;19;1407;-56
2023/10/07 04:14:35;;;;;;;;;;;;;;;22.50;45.85;101648.88;7396790;19;1486;-55
2023/10/07 04:17:11;;;;;;;;;;;;;;;22.57;45.55;101653.59;7397450;19;1491;-53
2023/10/07 04:19:42;;;;;;;;;;;;;;;22.46;46.22;101647.44;7389995;19;2558;-54
2023/10/07 04:22:11;;;;;;;;;;;;;;;22.66;45.65;101667.22;7391618;19;1873;-55
2023/10/07 04:24:44;;;;;;;;;;;;;;;22.73;45.77;101654.91;7393259;19;1797;-54
2023/10/07 04:27:21;;;;;;;;;;;;;;;22.72;45.86;101654.06;7392314;19;1863;-55
2023/10/07 04:29:52;;;;;;;;;;;;;;;22.77;46.28;101646.41;7393187;19;1854;-55
2023/10/07 04:32:22;;;;;;;;;;;;;;;22.64;45.53;101654.75;7392913;19;1429;-55
2023/10/07 04:35:06;;;;;;;;;;;;;;;22.43;45.21;101660.22;7392639;19;1743;-55
2023/10/07 04:37:47;;;;;;;;;;;;;;;22.27;45.73;101659.88;7394070;19;1733;-55
2023/10/07 04:43:25;;;;;;;;;;;;;;;22.10;45.27;101655.06;7400228;19;1299;-54
2023/10/07 04:45:53;;;;;;;;;;;;;;;22.07;42.59;101658.91;7397384;19;1853;-57
2023/10/07 04:48:40;;;;;;;;;;;;;;;22.08;43.40;101644.44;7399181;19;1640;-57
2023/10/07 04:51:08;;;;;;;;;;;;;;;22.16;43.70;101641.94;7396941;19;1505;-55
2023/10/07 04:53:40;;;;;;;;;;;;;;;22.17;42.93;101654.41;7398912;19;1567;-54
2023/10/07 04:56:06;;;;;;;;;;;;;;;22.22;42.71;101644.09;7394779;19;2473;-56
2023/10/07 04:58:39;;;;;;;;;;;;;;;22.01;43.29;101648.66;7398644;19;1374;-57
2023/10/07 05:01:05;;;;;;;;;;;;;;;22.43;43.41;101643.19;7398744;19;1489;-55
2023/10/07 05:03:33;;;;;;;;;;;;;;;22.51;42.28;101656.00;7396430;19;1607;-55
2023/10/07 05:05:59;;;;;;;;;;;;;;;22.52;43.43;101639.69;7396327;19;1837;-56
2023/10/07 05:08:28;;;;;;;;;;;;;;;22.65;43.95;101655.59;7399466;19;1468;-56
2023/10/07 05:10:54;;;;;;;;;;;;;;;22.33;43.36;101647.69;7396914;19;2447;-56
2023/10/07 05:13:24;;;;;;;;;;;;;;;22.56;43.74;101649.19;7398456;19;1829;-57
2023/10/07 05:15:52;;;;;;;;;;;;;;;22.88;43.89;101647.25;7393279;19;1440;-56
2023/10/07 05:18:20;;;;;;;;;;;;;;;23.03;43.75;101646.75;7397630;19;1413;-57
2023/10/07 05:20:46;;;;;;;;;;;;;;;22.95;44.17;101653.81;7396246;19;1578;-54
2023/10/07 05:23:17;;;;;;;;;;;;;;;22.89;44.66;101655.22;7392498;19;1472;-55
2023/10/07 05:25:48;;;;;;;;;;;;;;;23.07;44.71;101649.16;7394521;19;1858;-55
2023/10/07 05:28:17;;;;;;;;;;;;;;;23.25;44.39;101657.41;7398716;19;1952;-56
2023/10/07 05:30:50;;;;;;;;;;;;;;;23.17;44.93;101658.13;7397638;19;1810;-56
2023/10/07 05:33:24;;;;;;;;;;;;;;;23.27;44.85;101658.97;7397669;19;1602;-54
2023/10/07 05:35:54;;;;;;;;;;;;;;;23.40;44.89;101662.25;7396445;19;1409;-56
2023/10/07 05:38:22;;;;;;;;;;;;;;;23.39;45.07;101662.38;7395182;19;1512;-57
2023/10/07 05:40:50;;;;;;;;;;;;;;;23.32;45.50;101655.88;7397331;19;1383;-54
2023/10/07 05:43:19;;;;;;;;;;;;;;;23.62;44.87;101660.22;7395591;19;1828;-57
2023/10/07 05:45:48;;;;;;;;;;;;;;;23.59;45.27;101672.16;7395335;19;1868;-55
2023/10/07 05:48:17;;;;;;;;;;;;;;;23.43;46.03;101680.00;7398417;19;1536;-55
2023/10/07 05:50:48;;;;;;;;;;;;;;;23.53;45.60;101669.19;7395586;19;1450;-56
2023/10/07 05:53:16;;;;;;;;;;;;;;;23.25;44.38;101682.53;7393177;19;1634;-57
2023/10/07 05:55:46;;;;;;;;;;;;;;;23.54;44.12;101676.31;7397721;19;1954;-57
2023/10/07 05:58:14;;;;;;;;;;;;;;;23.47;44.97;101681.41;7398066;19;1924;-56
2023/10/07 06:00:42;;;;;;;;;;;;;;;23.70;44.78;101676.56;7393408;19;1371;-56
2023/10/07 06:03:12;;;;;;;;;;;;;;;23.77;44.67;101676.81;7396210;19;1512;-56
2023/10/07 06:05:42;;;;;;;;;;;;;;;23.74;44.84;101677.97;7390895;19;1870;-57
2023/10/07 06:08:15;;;;;;;;;;;;;;;23.42;44.60;101673.75;7391638;19;1448;-54
2023/10/07 06:10:44;;;;;;;;;;;;;;;23.57;43.42;101673.31;7397072;19;1719;-55
2023/10/07 06:13:15;;;;;;;;;;;;;;;23.64;45.10;101682.53;7393316;19;1490;-56
2023/10/07 06:15:43;;;;;;;;;;;;;;;23.57;44.88;101692.19;7397587;19;1206;-56
2023/10/07 06:18:12;;;;;;;;;;;;;;;23.30;46.28;101685.69;7396112;19;1833;-57
2023/10/07 06:20:46;;;;;;;;;;;;;;;23.33;46.35;101696.19;7395933;19;1834;-56
2023/10/07 06:23:18;;;;;;;;;;;;;;;23.21;46.70;101687.38;7393441;19;1555;-57
2023/10/07 06:25:48;;;;;;;;;;;;;;;23.27;46.41;101680.56;7392785;19;1850;-56
2023/10/07 06:28:29;;;;;;;;;;;;;;;23.31;47.73;101679.28;7395134;19;1476;-57
2023/10/07 06:31:10;;;;;;;;;;;;;;;23.40;46.97;101670.34;7394662;19;1490;-57
2023/10/07 06:33:39;;;;;;;;;;;;;;;23.39;48.14;101674.03;7397353;19;1485;-57
2023/10/07 06:36:07;;;;;;;;;;;;;;;23.45;48.11;101683.41;7396335;19;1480;-57
2023/10/07 06:38:45;;;;;;;;;;;;;;;23.81;47.23;101680.97;7395115;19;1713;-57
2023/10/07 06:41:14;;;;;;;;;;;;;;;23.64;47.77;101660.94;7391174;19;1577;-58
2023/10/07 06:43:43;;;;;;;;;;;;;;;23.64;48.44;101679.84;7393428;19;1477;-57
2023/10/07 06:46:12;;;;;;;;;;;;;;;23.60;48.35;101667.63;7395551;19;1873;-58
2023/10/07 06:48:40;;;;;;;;;;;;;;;23.43;48.83;101670.03;7395511;19;1742;-57
2023/10/07 06:51:11;;;;;;;;;;;;;;;23.33;47.89;101662.94;7396317;19;1822;-56
2023/10/07 06:53:42;;;;;;;;;;;;;;;23.38;47.79;101663.38;7394264;19;2530;-57
2023/10/07 06:56:12;;;;;;;;;;;;;;;23.18;44.67;101659.84;7395207;19;1722;-57
2023/10/07 06:58:41;;;;;;;;;;;;;;;23.70;44.27;101652.25;7395620;19;1580;-57
2023/10/07 07:01:17;;;;;;;;;;;;;;;23.22;43.93;101661.25;7395135;19;1611;-57
2023/10/07 07:03:46;;;;;;;;;;;;;;;22.81;42.52;101665.84;7394213;19;1798;-56
2023/10/07 07:06:17;;;;;;;;;;;;;;;22.82;42.87;101664.88;7395602;19;1842;-56
2023/10/07 07:08:50;;;;;;;;;;;;;;;22.79;41.59;101665.97;7394697;19;1723;-56
2023/10/07 07:11:16;;;;;;;;;;;;;;;22.83;42.18;101661.19;7395575;19;1405;-56
2023/10/07 07:13:45;;;;;;;;;;;;;;;22.90;41.54;101658.75;7395744;19;1249;-56
2023/10/07 07:16:13;;;;;;;;;;;;;;;22.95;41.89;101651.13;7395578;19;1782;-55
2023/10/07 07:18:44;;;;;;;;;;;;;;;22.96;43.33;101650.97;7385890;19;2076;-56
2023/10/07 07:21:31;;;;;;;;;;;;;;;22.81;44.23;101649.66;7395833;19;1648;-52
2023/10/07 07:24:02;;;;;;;;;;;;;;;22.70;45.25;101650.66;7393935;19;1433;-56
2023/10/07 07:26:30;;;;;;;;;;;;;;;22.82;45.20;101649.53;7387955;19;1850;-54
2023/10/07 07:28:58;;;;;;;;;;;;;;;22.96;44.92;101656.38;7393260;19;1369;-54
2023/10/07 07:31:34;;;;;;;;;;;;;;;22.98;44.87;101654.38;7394416;19;1146;-55
2023/10/07 07:34:09;;;;;;;;;;;;;;;23.25;44.94;101655.56;7394557;19;1865;-56
2023/10/07 07:36:47;;;;;;;;;;;;;;;23.24;45.62;101651.19;7374773;19;1474;-55
2023/10/07 07:39:22;;;;;;;;;;;;;;;23.28;45.27;101655.28;7394007;19;1731;-57
2023/10/07 07:42:00;;;;;;;;;;;;;;;23.19;46.03;101654.28;7391124;19;1719;-56
2023/10/07 07:44:55;;;;;;;;;;;;;;;23.14;45.44;101653.00;7393215;19;1510;-52
2023/10/07 07:47:24;;;;;;;;;;;;;;;23.01;44.66;101647.84;7393664;19;1859;-52
2023/10/07 07:49:53;;;;;;;;;;;;;;;23.09;44.25;101650.72;7393663;19;1557;-57
2023/10/07 07:52:23;;;;;;;;;;;;;;;23.00;44.56;101646.16;7393985;19;1528;-55
2023/10/07 07:54:54;;;;;;;;;;;;;;;22.96;45.12;101640.19;7394408;19;1505;-57
2023/10/07 07:57:24;;;;;;;;;;;;;;;23.11;45.58;101639.81;7394474;19;1794;-55
2023/10/07 07:59:53;;;;;;;;;;;;;;;23.16;46.09;101646.47;7393114;19;1609;-57
2023/10/07 08:02:24;;;;;;;;;;;;;;;23.15;45.63;101644.75;7393818;19;1741;-57
2023/10/07 08:05:02;;;;;;;;;;;;;;;23.24;46.04;101621.50;7394006;19;1834;-56
2023/10/07 08:07:30;;;;;;;;;;;;;;;23.23;45.90;101641.34;7392653;19;1928;-57
2023/10/07 08:10:03;;;;;;;;;;;;;;;23.29;45.55;101645.34;7390406;19;1603;-57
2023/10/07 08:12:34;;;;;;;;;;;;;;;23.41;45.46;101636.09;7392320;19;1527;-56
2023/10/07 08:15:09;;;;;;;;;;;;;;;23.15;45.33;101606.16;7399691;19;1590;-55
2023/10/07 08:17:38;;;;;;;;;;;;;;;23.31;46.20;101633.41;7401330;19;1657;-54
2023/10/07 08:20:12;;;;;;;;;;;;;;;23.39;45.57;101630.81;7397345;19;1500;-55
2023/10/07 08:22:45;;;;;;;;;;;;;;;23.35;45.57;101640.22;7398913;19;1392;-55
2023/10/07 08:25:25;;;;;;;;;;;;;;;23.27;44.88;101650.88;7401024;19;1567;-55
2023/10/07 08:27:55;;;;;;;;;;;;;;;23.06;45.12;101624.03;7395923;19;1853;-55
2023/10/07 08:30:37;;;;;;;;;;;;;;;23.22;44.13;101621.63;7401149;19;1544;-55
2023/10/07 08:33:06;;;;;;;;;;;;;;;23.17;44.57;101636.53;7400777;19;1566;-55
2023/10/07 08:35:34;;;;;;;;;;;;;;;23.38;44.76;101636.41;7390163;19;1072;-57
2023/10/07 08:38:19;;;;;;;;;;;;;;;23.38;44.79;101628.31;7399400;19;1822;-55
2023/10/07 08:40:56;;;;;;;;;;;;;;;23.42;44.91;101619.75;7398343;19;1695;-57
2023/10/07 08:43:25;;;;;;;;;;;;;;;23.52;44.43;101611.66;7394938;19;1566;-56
2023/10/07 08:45:59;;;;;;;;;;;;;;;23.66;43.87;101615.75;7399196;19;1639;-56
2023/10/07 08:48:27;;;;;;;;;;;;;;;23.24;42.62;101605.28;7391795;19;1841;-56
2023/10/07 08:50:59;;;;;;;;;;;;;;;23.31;44.03;101605.56;7396857;19;1380;-56
2023/10/07 08:53:28;;;;;;;;;;;;;;;23.39;41.30;101601.13;7395171;19;1501;-55
2023/10/07 08:56:00;;;;;;;;;;;;;;;23.45;41.04;101604.28;7396739;19;1562;-54
2023/10/07 08:58:31;;;;;;;;;;;;;;;23.55;40.19;101595.13;7398222;19;1597;-54
2023/10/07 09:01:00;;;;;;;;;;;;;;;23.54;40.47;101598.84;7395981;19;1549;-54
2023/10/07 09:03:29;;;;;;;;;;;;;;;23.57;39.76;101592.31;7396101;19;1795;-55
2023/10/07 09:06:06;;;;;;;;;;;;;;;23.53;40.28;101594.44;7395263;19;1635;-55
2023/10/07 09:08:34;;;;;;;;;;;;;;;23.43;40.61;101580.13;7393296;19;1838;-55
2023/10/07 09:11:08;;;;;;;;;;;;;;;23.50;40.85;101589.34;7397693;19;1157;-55
2023/10/07 09:13:38;;;;;;;;;;;;;;;23.60;40.18;101590.16;7395517;19;1321;-54
2023/10/07 09:16:07;;;;;;;;;;;;;;;23.57;41.05;101584.19;7395558;19;1740;-55
2023/10/07 09:18:39;;;;;;;;;;;;;;;23.52;40.51;101575.72;7396183;19;1758;-55
2023/10/07 09:21:09;;;;;;;;;;;;;;;23.49;40.77;101571.44;7400214;19;1814;-55
2023/10/07 09:23:43;;;;;;;;;;;;;;;23.52;41.21;101581.09;7399127;19;1544;-55
2023/10/07 09:26:21;;;;;;;;;;;;;;;23.49;40.58;101576.00;7396927;19;1578;-54
2023/10/07 09:28:51;;;;;;;;;;;;;;;23.50;39.45;101561.50;7397233;19;1876;-54
2023/10/07 09:31:23;;;;;;;;;;;;;;;23.40;40.08;101565.06;7397941;19;1524;-55
2023/10/07 09:33:51;;;;;;;;;;;;;;;23.62;39.71;101561.16;7397801;19;1868;-55
2023/10/07 09:36:33;;;;;;;;;;;;;;;23.71;39.25;101559.44;7382478;19;1704;-55
2023/10/07 09:42:03;;;;;;;;;;;;;;;23.48;40.23;101555.41;7395032;19;1783;-55
2023/10/07 09:44:29;;;;;;;;;;;;;;;23.57;40.28;101557.22;7397800;19;1719;-55
2023/10/07 09:47:10;;;;;;;;;;;;;;;23.50;40.38;101551.56;7397788;19;1842;-56
2023/10/07 09:49:38;;;;;;;;;;;;;;;23.45;40.48;101553.81;7398425;19;1846;-54
2023/10/07 09:52:15;;;;;;;;;;;;;;;23.47;40.30;101551.00;7398061;19;1770;-55
2023/10/07 09:54:54;;;;;;;;;;;;;;;23.43;40.31;101556.66;7397522;19;1808;-55
2023/10/07 09:57:37;;;;;;;;;;;;;;;23.52;40.23;101554.13;7398318;19;1513;-55
2023/10/07 10:03:06;;;;;;;;;;;;;;;23.48;39.31;101540.06;7395096;19;2322;-55
2023/10/07 10:05:45;;;;;;;;;;;;;;;23.53;40.16;101536.91;7396769;19;1497;-54
2023/10/07 10:08:27;;;;;;;;;;;;;;;23.47;40.49;101540.19;7396077;19;1861;-54
2023/10/07 10:10:58;;;;;;;;;;;;;;;23.43;39.93;101523.44;7397397;19;1495;-55
2023/10/07 10:13:51;;;;;;;;;;;;;;;23.53;39.77;101526.94;7397643;19;1524;-55
2023/10/07 10:16:28;;;;;;;;;;;;;;;23.57;39.82;101508.59;7397806;19;1813;-54
2023/10/07 10:19:12;;;;;;;;;;;;;;;23.43;40.39;101508.06;7397449;19;1577;-55
2023/10/07 10:21:40;;;;;;;;;;;;;;;23.49;39.96;101500.41;7397581;19;1805;-55
2023/10/07 10:24:14;;;;;;;;;;;;;;;23.41;40.76;101496.56;7397188;19;1799;-54
2023/10/07 10:26:44;;;;;;;;;;;;;;;23.39;39.85;101490.47;7397598;19;1805;-54
2023/10/07 10:29:25;;;;;;;;;;;;;;;23.46;41.18;101484.47;7395730;19;1946;-54
2023/10/07 10:31:58;;;;;;;;;;;;;;;23.42;38.29;101474.00;7399196;19;1746;-55
2023/10/07 10:34:26;;;;;;;;;;;;;;;23.24;39.34;101451.50;7398254;19;1564;-55
2023/10/07 10:36:56;;;;;;;;;;;;;;;23.41;40.16;101474.97;7380493;19;1496;-55
2023/10/07 10:39:25;;;;;;;;;;;;;;;23.45;39.99;101466.59;7397208;19;1835;-55
2023/10/07 10:41:54;;;;;;;;;;;;;;;23.44;40.50;101460.38;7397275;19;1738;-55
2023/10/07 10:44:25;;;;;;;;;;;;;;;23.40;39.57;101465.19;7395344;19;1423;-61
2023/10/07 10:46:53;;;;;;;;;;;;;;;23.46;38.87;101466.47;7394804;19;1416;-55
2023/10/07 10:49:23;;;;;;;;;;;;;;;23.48;38.84;101444.72;7397176;19;1554;-55
2023/10/07 10:51:55;;;;;;;;;;;;;;;23.44;41.05;101449.56;7398060;19;1621;-56
2023/10/07 10:54:24;;;;;;;;;;;;;;;23.38;39.33;101440.22;7397530;19;1558;-58
2023/10/07 10:56:55;;;;;;;;;;;;;;;23.39;38.90;101436.50;7397177;19;1396;-55
2023/10/07 10:59:37;;;;;;;;;;;;;;;23.45;39.83;101434.22;7398273;19;1493;-55
2023/10/07 11:02:05;;;;;;;;;;;;;;;23.40;39.91;101435.50;7398671;19;1462;-54
2023/10/07 11:04:33;;;;;;;;;;;;;;;23.36;38.86;101422.47;7397343;19;1541;-56
2023/10/07 11:07:04;;;;;;;;;;;;;;;23.41;38.97;101418.31;7397992;19;1918;-55
2023/10/07 11:09:37;;;;;;;;;;;;;;;23.36;39.32;101419.78;7398658;19;1661;-55
2023/10/07 11:12:12;;;;;;;;;;;;;;;23.31;39.47;101406.69;7398223;19;1734;-55
2023/10/07 11:14:43;;;;;;;;;;;;;;;23.31;38.96;101405.84;7396326;19;1491;-55
2023/10/07 11:17:12;;;;;;;;;;;;;;;23.32;39.22;101413.81;7395987;19;1813;-55
2023/10/07 11:19:44;;;;;;;;;;;;;;;23.23;38.88;101420.09;7395616;19;2045;-55
2023/10/07 11:22:19;;;;;;;;;;;;;;;23.27;38.27;101404.47;7396131;19;1675;-55
2023/10/07 11:24:49;;;;;;;;;;;;;;;23.53;37.16;101397.34;7394705;19;1924;-55
2023/10/07 11:27:18;;;;;;;;;;;;;;;23.43;37.10;101383.91;7394205;19;1875;-55
2023/10/07 11:29:58;;;;;;;;;;;;;;;23.41;37.71;101390.47;7394928;19;1835;-55
2023/10/07 11:32:31;;;;;;;;;;;;;;;23.42;37.25;101384.09;7393387;19;1568;-55
2023/10/07 11:34:59;;;;;;;;;;;;;;;23.38;37.36;101374.59;7393794;19;1833;-55
2023/10/07 11:37:27;;;;;;;;;;;;;;;23.39;37.66;101376.28;7380971;19;1552;-56
2023/10/07 11:39:56;;;;;;;;;;;;;;;23.52;37.17;101360.59;7395602;19;1688;-55
2023/10/07 11:42:25;;;;;;;;;;;;;;;23.36;38.71;101355.84;7394818;19;1497;-55
2023/10/07 11:44:56;;;;;;;;;;;;;;;23.37;37.54;101349.44;7393644;19;1493;-55
2023/10/07 11:47:27;;;;;;;;;;;;;;;23.33;37.83;101361.53;7394036;19;1841;-55
2023/10/07 11:49:55;;;;;;;;;;;;;;;23.45;37.85;101359.47;7394325;19;1402;-55
2023/10/07 11:52:27;;;;;;;;;;;;;;;23.43;37.71;101353.38;7394757;19;1959;-55
2023/10/07 11:54:56;;;;;;;;;;;;;;;23.35;38.04;101346.03;7393903;19;1928;-55
2023/10/07 11:57:24;;;;;;;;;;;;;;;23.34;37.73;101343.50;7394603;19;1842;-56
2023/10/07 11:59:52;;;;;;;;;;;;;;;23.33;38.05;101342.63;7394574;19;1830;-55
2023/10/07 12:02:23;;;;;;;;;;;;;;;23.31;38.32;101352.72;7395690;19;1080;-55
2023/10/07 12:04:53;;;;;;;;;;;;;;;23.31;37.98;101339.22;7394340;19;1510;-56
2023/10/07 12:07:22;;;;;;;;;;;;;;;23.34;37.92;101316.50;7393171;19;1836;-55
2023/10/07 12:09:51;;;;;;;;;;;;;;;23.35;37.51;101335.22;7393634;19;1866;-55
2023/10/07 12:12:19;;;;;;;;;;;;;;;23.33;36.79;101321.03;7394205;19;1758;-56
2023/10/07 12:14:48;;;;;;;;;;;;;;;23.31;36.31;101327.59;7393320;19;1715;-55
2023/10/07 12:17:16;;;;;;;;;;;;;;;23.27;36.88;101308.16;7391649;19;1644;-55
2023/10/07 12:19:47;;;;;;;;;;;;;;;23.31;37.45;101312.25;7392847;19;1565;-56
2023/10/07 12:22:15;;;;;;;;;;;;;;;23.33;36.99;101315.66;7390903;19;1502;-56
2023/10/07 12:24:46;;;;;;;;;;;;;;;23.36;37.06;101301.03;7395046;19;1894;-55
2023/10/07 12:27:14;;;;;;;;;;;;;;;23.36;38.14;101298.31;7393421;19;1826;-55
2023/10/07 12:29:44;;;;;;;;;;;;;;;23.43;37.85;101292.13;7387753;19;1822;-55
2023/10/07 12:32:12;;;;;;;;;;;;;;;23.54;38.50;101291.09;7391827;19;1642;-56
2023/10/07 12:34:47;;;;;;;;;;;;;;;23.55;38.86;101289.22;7391054;19;1323;-56
2023/10/07 12:37:20;;;;;;;;;;;;;;;23.60;38.93;101297.72;7377591;19;1814;-54
2023/10/07 12:39:49;;;;;;;;;;;;;;;23.58;39.04;101299.75;7391976;19;1410;-55
2023/10/07 12:42:18;;;;;;;;;;;;;;;23.58;39.27;101281.69;7392433;19;1392;-55
2023/10/07 12:44:46;;;;;;;;;;;;;;;23.62;39.60;101291.16;7391198;19;1535;-55
2023/10/07 12:47:15;;;;;;;;;;;;;;;23.66;39.49;101289.00;7391289;19;1461;-55
2023/10/07 12:49:45;;;;;;;;;;;;;;;23.80;39.01;101272.31;7390029;19;1853;-54
2023/10/07 12:52:16;;;;;;;;;;;;;;;23.92;38.90;101272.91;7390155;19;1826;-56
2023/10/07 12:54:46;;;;;;;;;;;;;;;23.91;39.34;101267.66;7391851;19;1552;-56
2023/10/07 12:57:16;;;;;;;;;;;;;;;24.05;39.41;101258.16;7391762;19;2071;-57
2023/10/07 12:59:47;;;;;;;;;;;;;;;24.15;39.42;101259.78;7393268;19;1560;-56
2023/10/07 13:02:17;;;;;;;;;;;;;;;24.26;39.56;101263.22;7399556;19;1430;-54
2023/10/07 13:04:47;;;;;;;;;;;;;;;24.20;40.40;101246.59;7399886;19;1476;-57
2023/10/07 13:07:17;;;;;;;;;;;;;;;24.27;40.32;101254.09;7399279;19;1904;-56
2023/10/07 13:09:48;;;;;;;;;;;;;;;24.34;40.87;101237.06;7397498;19;1846;-56
2023/10/07 13:12:18;;;;;;;;;;;;;;;24.35;40.91;101246.03;6880988;19;10000425;-54
2023/10/07 13:14:46;;;;;;;;;;;;;;;24.34;40.90;101247.03;7389378;19;1549;-54
2023/10/07 13:17:14;;;;;;;;;;;;;;;24.35;41.03;101251.44;7389978;19;1425;-53
2023/10/07 13:19:44;;;;;;;;;;;;;;;24.35;40.97;101252.31;7392604;19;1678;-53
2023/10/07 13:22:12;;;;;;;;;;;;;;;24.32;41.04;101232.84;7393134;19;1613;-54